createdAt,value
2019-05-23T00:00:46.578Z,0.00
2019-05-23T00:01:46.801Z,0.00
2019-05-23T00:02:47.027Z,0.00
2019-05-23T00:03:47.247Z,0.00
2019-05-23T00:04:47.473Z,0.00
2019-05-23T00:05:47.721Z,0.00
2019-05-23T00:06:47.922Z,0.00
2019-05-23T00:07:48.151Z,0.00
2019-05-23T00:08:48.374Z,0.00
2019-05-23T00:09:48.603Z,0.00
2019-05-23T00:10:48.822Z,0.00
2019-05-23T00:11:49.048Z,0.00
2019-05-23T00:12:49.272Z,0.00
2019-05-23T00:13:49.499Z,0.00
2019-05-23T00:14:49.720Z,0.00
2019-05-23T00:15:49.954Z,0.00
2019-05-23T00:16:50.175Z,0.00
2019-05-23T00:17:50.399Z,0.00
2019-05-23T00:18:50.625Z,0.00
2019-05-23T00:19:50.851Z,0.00
2019-05-23T00:20:51.079Z,0.00
2019-05-23T00:21:51.303Z,0.00
2019-05-23T00:22:51.526Z,0.00
2019-05-23T00:23:51.752Z,0.00
2019-05-23T00:24:51.976Z,0.00
2019-05-23T00:25:52.195Z,0.00
2019-05-23T00:26:52.424Z,0.00
2019-05-23T00:27:52.647Z,0.00
2019-05-23T00:29:08.774Z,0.00
2019-05-23T00:29:53.102Z,0.00
2019-05-23T00:30:53.326Z,0.00
2019-05-23T00:31:53.552Z,0.00
2019-05-23T00:32:53.775Z,0.00
2019-05-23T00:33:53.999Z,0.00
2019-05-23T00:34:54.224Z,0.00
2019-05-23T00:35:54.454Z,0.00
2019-05-23T00:36:54.737Z,0.00
2019-05-23T00:37:54.903Z,0.00
2019-05-23T00:38:55.138Z,0.00
2019-05-23T00:39:55.355Z,0.00
2019-05-23T00:40:55.577Z,0.00
2019-05-23T00:41:55.803Z,0.00
2019-05-23T00:42:56.035Z,0.00
2019-05-23T00:43:56.252Z,0.00
2019-05-23T00:44:56.476Z,0.00
2019-05-23T00:45:56.701Z,0.00
2019-05-23T00:46:56.924Z,0.00
2019-05-23T00:47:57.148Z,0.00
2019-05-23T00:48:57.365Z,0.00
2019-05-23T00:49:57.598Z,0.00
2019-05-23T00:50:57.809Z,0.00
2019-05-23T00:51:58.029Z,0.00
2019-05-23T00:52:58.260Z,0.00
2019-05-23T00:53:58.477Z,0.00
2019-05-23T00:54:58.705Z,0.00
2019-05-23T00:55:59.035Z,0.00
2019-05-23T00:56:59.158Z,0.00
2019-05-23T00:57:59.378Z,0.00
2019-05-23T00:58:59.601Z,0.00
2019-05-23T00:59:59.824Z,0.00
2019-05-23T01:01:00.052Z,0.00
2019-05-23T01:02:00.277Z,0.00
2019-05-23T01:03:00.505Z,0.00
2019-05-23T01:04:00.727Z,0.00
2019-05-23T01:05:00.954Z,0.00
2019-05-23T01:06:01.195Z,0.00
2019-05-23T01:07:01.401Z,0.00
2019-05-23T01:08:01.639Z,0.00
2019-05-23T01:09:01.852Z,0.00
2019-05-23T01:10:02.078Z,0.00
2019-05-23T01:11:02.302Z,0.00
2019-05-23T01:12:02.524Z,0.00
2019-05-23T01:13:02.752Z,0.00
2019-05-23T01:14:02.975Z,0.00
2019-05-23T01:15:03.200Z,0.00
2019-05-23T01:16:03.422Z,0.00
2019-05-23T01:17:03.656Z,0.00
2019-05-23T01:18:03.871Z,0.00
2019-05-23T01:19:04.102Z,0.00
2019-05-23T01:20:04.329Z,0.00
2019-05-23T01:21:04.545Z,0.00
2019-05-23T01:22:04.777Z,0.00
2019-05-23T01:23:04.999Z,0.00
2019-05-23T01:24:05.221Z,0.00
2019-05-23T01:25:05.448Z,0.00
2019-05-23T01:26:05.668Z,0.00
2019-05-23T01:27:05.892Z,0.00
2019-05-23T01:28:06.148Z,0.00
2019-05-23T01:29:06.339Z,0.00
2019-05-23T01:30:06.562Z,0.00
2019-05-23T01:31:06.787Z,0.00
2019-05-23T01:32:07.013Z,0.00
2019-05-23T01:33:07.232Z,0.00
2019-05-23T01:34:07.460Z,0.00
2019-05-23T01:35:07.683Z,0.00
2019-05-23T01:36:07.902Z,0.00
2019-05-23T01:37:08.134Z,0.00
2019-05-23T01:38:08.347Z,0.00
2019-05-23T01:39:08.572Z,0.00
2019-05-23T01:40:08.798Z,0.00
2019-05-23T01:41:09.022Z,0.00
2019-05-23T01:42:09.249Z,0.00
2019-05-23T01:43:09.471Z,0.00
2019-05-23T01:44:09.702Z,0.00
2019-05-23T01:45:09.923Z,0.00
2019-05-23T01:46:10.146Z,0.00
2019-05-23T01:47:10.365Z,0.00
2019-05-23T01:48:10.594Z,0.00
2019-05-23T01:49:10.816Z,0.00
2019-05-23T01:50:11.044Z,0.00
2019-05-23T01:51:11.266Z,0.00
2019-05-23T01:52:11.488Z,0.00
2019-05-23T01:53:11.750Z,0.00
2019-05-23T01:54:11.933Z,0.00
2019-05-23T01:55:12.157Z,0.00
2019-05-23T01:56:12.383Z,0.00
2019-05-23T01:57:12.610Z,0.00
2019-05-23T01:58:12.834Z,0.00
2019-05-23T01:59:13.054Z,0.00
2019-05-23T02:00:13.283Z,0.00
2019-05-23T02:01:13.504Z,0.00
2019-05-23T02:02:13.734Z,0.00
2019-05-23T02:03:13.951Z,0.00
2019-05-23T02:04:14.174Z,0.00
2019-05-23T02:05:14.401Z,0.00
2019-05-23T02:06:14.628Z,0.00
2019-05-23T02:07:14.857Z,0.00
2019-05-23T02:08:15.093Z,0.00
2019-05-23T02:09:15.308Z,0.00
2019-05-23T02:10:15.524Z,0.00
2019-05-23T02:11:15.742Z,0.00
2019-05-23T02:12:15.971Z,0.00
2019-05-23T02:13:16.175Z,0.00
2019-05-23T02:14:16.396Z,0.00
2019-05-23T02:15:16.619Z,0.00
2019-05-23T02:16:16.876Z,0.00
2019-05-23T02:17:17.062Z,0.00
2019-05-23T02:18:17.287Z,0.00
2019-05-23T02:19:17.508Z,0.00
2019-05-23T02:20:17.727Z,0.00
2019-05-23T02:21:17.953Z,0.00
2019-05-23T02:22:18.177Z,0.00
2019-05-23T02:23:18.401Z,0.00
2019-05-23T02:24:18.632Z,0.00
2019-05-23T02:25:18.872Z,0.00
2019-05-23T02:26:19.082Z,0.00
2019-05-23T02:27:19.302Z,0.00
2019-05-23T02:28:19.525Z,0.00
2019-05-23T02:29:19.745Z,0.00
2019-05-23T02:30:33.005Z,0.00
2019-05-23T02:31:20.195Z,0.00
2019-05-23T02:32:20.419Z,0.00
2019-05-23T02:33:20.645Z,0.00
2019-05-23T02:34:20.871Z,0.00
2019-05-23T02:35:21.091Z,0.00
2019-05-23T02:36:21.317Z,0.00
2019-05-23T02:37:21.538Z,0.00
2019-05-23T02:38:21.764Z,0.00
2019-05-23T02:39:21.993Z,0.00
2019-05-23T02:40:22.212Z,4.00
2019-05-23T02:41:22.436Z,4.00
2019-05-23T02:42:22.663Z,4.00
2019-05-23T02:43:22.888Z,0.00
2019-05-23T02:44:23.128Z,0.00
2019-05-23T02:45:23.372Z,4.00
2019-05-23T02:46:23.562Z,4.00
2019-05-23T02:47:23.780Z,0.00
2019-05-23T02:48:24.009Z,4.00
2019-05-23T02:49:24.232Z,4.00
2019-05-23T02:50:24.454Z,4.00
2019-05-23T02:51:24.693Z,4.00
2019-05-23T02:52:24.905Z,4.00
2019-05-23T02:53:25.125Z,8.00
2019-05-23T02:54:25.387Z,8.00
2019-05-23T02:55:25.588Z,8.00
2019-05-23T02:56:25.797Z,12.00
2019-05-23T02:57:26.021Z,12.00
2019-05-23T02:58:26.247Z,12.00
2019-05-23T02:59:26.469Z,16.00
2019-05-23T03:00:26.695Z,12.00
2019-05-23T03:01:26.919Z,16.00
2019-05-23T03:02:27.143Z,20.00
2019-05-23T03:03:27.362Z,24.00
2019-05-23T03:04:27.590Z,28.00
2019-05-23T03:05:27.813Z,28.00
2019-05-23T03:06:28.040Z,32.00
2019-05-23T03:07:28.260Z,36.00
2019-05-23T03:08:28.489Z,40.00
2019-05-23T03:09:28.709Z,48.00
2019-05-23T03:10:28.933Z,52.00
2019-05-23T03:11:29.161Z,60.00
2019-05-23T03:12:29.390Z,64.00
2019-05-23T03:13:29.609Z,72.00
2019-05-23T03:14:29.838Z,76.00
2019-05-23T03:15:30.054Z,88.00
2019-05-23T03:16:30.282Z,96.00
2019-05-23T03:17:30.507Z,100.00
2019-05-23T03:18:34.362Z,108.00
2019-05-23T03:19:30.957Z,116.00
2019-05-23T03:20:31.182Z,124.00
2019-05-23T03:21:31.404Z,128.00
2019-05-23T03:22:31.692Z,136.00
2019-05-23T03:23:31.859Z,148.00
2019-05-23T03:24:32.085Z,160.00
2019-05-23T03:25:32.312Z,172.00
2019-05-23T03:26:32.534Z,188.00
2019-05-23T03:27:32.749Z,208.00
2019-05-23T03:28:32.977Z,224.00
2019-05-23T03:29:33.195Z,244.00
2019-05-23T03:30:33.433Z,260.00
2019-05-23T03:31:33.745Z,276.00
2019-05-23T03:32:38.845Z,280.00
2019-05-23T03:33:34.096Z,288.00
2019-05-23T03:34:34.323Z,300.00
2019-05-23T03:35:34.557Z,316.00
2019-05-23T03:36:34.770Z,336.00
2019-05-23T03:37:34.994Z,360.00
2019-05-23T03:38:35.213Z,376.00
2019-05-23T03:39:35.448Z,380.00
2019-05-23T03:40:35.679Z,384.00
2019-05-23T03:41:35.897Z,396.00
2019-05-23T03:42:36.112Z,416.00
2019-05-23T03:43:36.339Z,428.00
2019-05-23T03:44:36.554Z,432.00
2019-05-23T03:45:39.697Z,456.00
2019-05-23T03:46:37.004Z,472.00
2019-05-23T03:47:37.226Z,488.00
2019-05-23T03:48:37.448Z,512.00
2019-05-23T03:49:37.673Z,548.00
2019-05-23T03:50:37.900Z,584.00
2019-05-23T03:51:38.125Z,612.00
2019-05-23T03:52:38.354Z,624.00
2019-05-23T03:53:38.575Z,656.00
2019-05-23T03:54:38.796Z,684.00
2019-05-23T03:55:39.021Z,712.00
2019-05-23T03:56:39.247Z,748.00
2019-05-23T03:57:39.477Z,820.00
2019-05-23T03:58:39.699Z,864.00
2019-05-23T03:59:39.922Z,912.00
2019-05-23T04:00:40.149Z,976.00
2019-05-23T04:01:48.077Z,1044.00
2019-05-23T04:02:40.592Z,1100.00
2019-05-23T04:03:40.823Z,1160.00
2019-05-23T04:04:41.107Z,1204.00
2019-05-23T04:05:41.272Z,1260.00
2019-05-23T04:06:41.497Z,1284.00
2019-05-23T04:07:41.715Z,1284.00
2019-05-23T04:08:41.960Z,1300.00
2019-05-23T04:09:42.170Z,1364.00
2019-05-23T04:10:42.392Z,1484.00
2019-05-23T04:11:42.618Z,1536.00
2019-05-23T04:12:42.846Z,1524.00
2019-05-23T04:13:43.073Z,1520.00
2019-05-23T04:14:43.296Z,1588.00
2019-05-23T04:15:43.521Z,1664.00
2019-05-23T04:16:43.742Z,1736.00
2019-05-23T04:17:43.964Z,1832.00
2019-05-23T04:18:44.191Z,1880.00
2019-05-23T04:19:44.413Z,1984.00
2019-05-23T04:20:44.642Z,2068.00
2019-05-23T04:21:44.866Z,2128.00
2019-05-23T04:22:45.091Z,2196.00
2019-05-23T04:23:45.312Z,2352.00
2019-05-23T04:24:45.552Z,2444.00
2019-05-23T04:25:45.760Z,2412.00
2019-05-23T04:26:46.001Z,2436.00
2019-05-23T04:27:46.210Z,2440.00
2019-05-23T04:28:46.437Z,2376.00
2019-05-23T04:29:46.661Z,2384.00
2019-05-23T04:30:46.887Z,2500.00
2019-05-23T04:32:03.857Z,2532.00
2019-05-23T04:32:47.337Z,2540.00
2019-05-23T04:33:47.570Z,2508.00
2019-05-23T04:34:47.787Z,2556.00
2019-05-23T04:35:48.021Z,2620.00
2019-05-23T04:36:48.242Z,2656.00
2019-05-23T04:37:48.462Z,2684.00
2019-05-23T04:38:48.809Z,2704.00
2019-05-23T04:39:48.898Z,2700.00
2019-05-23T04:40:49.121Z,2864.00
2019-05-23T04:41:49.346Z,2948.00
2019-05-23T04:42:49.574Z,2876.00
2019-05-23T04:43:49.800Z,2792.00
2019-05-23T04:44:50.083Z,2876.00
2019-05-23T04:45:50.247Z,2916.00
2019-05-23T04:46:50.488Z,2832.00
2019-05-23T04:47:50.700Z,2748.00
2019-05-23T04:48:50.932Z,2912.00
2019-05-23T04:49:51.156Z,3292.00
2019-05-23T04:50:51.373Z,3504.00
2019-05-23T04:51:51.599Z,3700.00
2019-05-23T04:52:51.824Z,3732.00
2019-05-23T04:53:52.051Z,3740.00
2019-05-23T04:54:52.276Z,3764.00
2019-05-23T04:55:52.499Z,3804.00
2019-05-23T04:56:52.722Z,3788.00
2019-05-23T04:57:52.951Z,3800.00
2019-05-23T04:58:53.173Z,3756.00
2019-05-23T04:59:53.403Z,3820.00
2019-05-23T05:00:53.623Z,3748.00
2019-05-23T05:01:53.851Z,3484.00
2019-05-23T05:02:54.071Z,3308.00
2019-05-23T05:03:54.298Z,3248.00
2019-05-23T05:04:54.544Z,3240.00
2019-05-23T05:05:54.751Z,3200.00
2019-05-23T05:06:54.981Z,3152.00
2019-05-23T05:07:55.207Z,3176.00
2019-05-23T05:08:55.431Z,3228.00
2019-05-23T05:09:55.656Z,3348.00
2019-05-23T05:10:55.884Z,3640.00
2019-05-23T05:11:56.111Z,3944.00
2019-05-23T05:12:56.334Z,4416.00
2019-05-23T05:13:56.558Z,4860.00
2019-05-23T05:14:56.785Z,5576.00
2019-05-23T05:15:57.011Z,5600.00
2019-05-23T05:16:57.238Z,5512.00
2019-05-23T05:17:57.458Z,5672.00
2019-05-23T05:18:57.691Z,5804.00
2019-05-23T05:19:57.909Z,6024.00
2019-05-23T05:20:58.133Z,6180.00
2019-05-23T05:21:58.409Z,6756.00
2019-05-23T05:22:58.590Z,6956.00
2019-05-23T05:23:58.814Z,6912.00
2019-05-23T05:24:59.037Z,7016.00
2019-05-23T05:25:59.276Z,7400.00
2019-05-23T05:26:59.507Z,7660.00
2019-05-23T05:27:59.727Z,7816.00
2019-05-23T05:28:59.954Z,7952.00
2019-05-23T05:30:00.185Z,8232.00
2019-05-23T05:31:00.406Z,8208.00
2019-05-23T05:32:03.666Z,8020.00
2019-05-23T05:33:00.855Z,7968.00
2019-05-23T05:34:01.092Z,7576.00
2019-05-23T05:35:01.328Z,6816.00
2019-05-23T05:36:01.550Z,6448.00
2019-05-23T05:37:01.767Z,6544.00
2019-05-23T05:38:02.027Z,7572.00
2019-05-23T05:39:02.221Z,8184.00
2019-05-23T05:40:02.440Z,8320.00
2019-05-23T05:41:02.683Z,8048.00
2019-05-23T05:42:02.907Z,8360.00
2019-05-23T05:43:03.139Z,8832.00
2019-05-23T05:44:03.367Z,8336.00
2019-05-23T05:45:03.631Z,7916.00
2019-05-23T05:46:03.802Z,6524.00
2019-05-23T05:47:04.040Z,8004.00
2019-05-23T05:48:04.257Z,9912.00
2019-05-23T05:49:04.470Z,10580.00
2019-05-23T05:50:04.688Z,11048.00
2019-05-23T05:51:04.979Z,11456.00
2019-05-23T05:52:05.141Z,11816.00
2019-05-23T05:53:05.367Z,11816.00
2019-05-23T05:54:05.618Z,11992.00
2019-05-23T05:55:05.821Z,12252.00
2019-05-23T05:56:06.105Z,11780.00
2019-05-23T05:57:06.293Z,12944.00
2019-05-23T05:58:06.523Z,13656.00
2019-05-23T05:59:06.748Z,13592.00
2019-05-23T06:00:06.973Z,13072.00
2019-05-23T06:01:07.201Z,12004.00
2019-05-23T06:02:07.428Z,12172.00
2019-05-23T06:03:07.658Z,11796.00
2019-05-23T06:04:07.884Z,11532.00
2019-05-23T06:05:08.107Z,11332.00
2019-05-23T06:06:08.337Z,11724.00
2019-05-23T06:07:08.564Z,11596.00
2019-05-23T06:08:08.795Z,12028.00
2019-05-23T06:09:09.033Z,12248.00
2019-05-23T06:10:09.256Z,13388.00
2019-05-23T06:11:09.479Z,13036.00
2019-05-23T06:12:09.707Z,13776.00
2019-05-23T06:13:09.933Z,15552.00
2019-05-23T06:14:10.161Z,14764.00
2019-05-23T06:15:10.393Z,14432.00
2019-05-23T06:16:10.614Z,14548.00
2019-05-23T06:17:10.841Z,16096.00
2019-05-23T06:18:11.067Z,17792.00
2019-05-23T06:19:11.295Z,17632.00
2019-05-23T06:20:11.579Z,18912.00
2019-05-23T06:21:11.828Z,19936.00
2019-05-23T06:22:11.990Z,19904.00
2019-05-23T06:23:12.218Z,19072.00
2019-05-23T06:24:12.450Z,18528.00
2019-05-23T06:25:12.676Z,18400.00
2019-05-23T06:26:12.903Z,18400.00
2019-05-23T06:27:13.134Z,18944.00
2019-05-23T06:28:13.361Z,19296.00
2019-05-23T06:29:13.590Z,19296.00
2019-05-23T06:30:13.817Z,19424.00
2019-05-23T06:31:14.051Z,20448.00
2019-05-23T06:32:14.281Z,20896.00
2019-05-23T06:33:23.489Z,20768.00
2019-05-23T06:34:14.737Z,19968.00
2019-05-23T06:35:14.964Z,20064.00
2019-05-23T06:36:15.207Z,19776.00
2019-05-23T06:37:15.425Z,19680.00
2019-05-23T06:38:15.654Z,19712.00
2019-05-23T06:39:16.050Z,18336.00
2019-05-23T06:40:16.120Z,17984.00
2019-05-23T06:41:16.352Z,18080.00
2019-05-23T06:42:16.569Z,18848.00
2019-05-23T06:43:16.805Z,18656.00
2019-05-23T06:44:17.035Z,18848.00
2019-05-23T06:45:17.263Z,19072.00
2019-05-23T06:46:17.504Z,18880.00
2019-05-23T06:47:17.726Z,18624.00
2019-05-23T06:48:17.950Z,18656.00
2019-05-23T06:49:18.186Z,18656.00
2019-05-23T06:50:18.419Z,18304.00
2019-05-23T06:51:18.649Z,18080.00
2019-05-23T06:52:18.942Z,17472.00
2019-05-23T06:53:19.119Z,17312.00
2019-05-23T06:54:19.351Z,17216.00
2019-05-23T06:55:19.581Z,17184.00
2019-05-23T06:56:19.809Z,16768.00
2019-05-23T06:57:20.047Z,15396.00
2019-05-23T06:58:20.688Z,14712.00
2019-05-23T06:59:20.502Z,14548.00
2019-05-23T07:00:20.742Z,14544.00
2019-05-23T07:01:20.967Z,14124.00
2019-05-23T07:02:21.197Z,14360.00
2019-05-23T07:03:21.427Z,14240.00
2019-05-23T07:04:21.660Z,14124.00
2019-05-23T07:05:21.910Z,13996.00
2019-05-23T07:06:22.125Z,13832.00
2019-05-23T07:07:22.368Z,13872.00
2019-05-23T07:08:25.284Z,13828.00
2019-05-23T07:09:22.830Z,13892.00
2019-05-23T07:10:23.067Z,13924.00
2019-05-23T07:11:23.297Z,14008.00
2019-05-23T07:12:23.528Z,13824.00
2019-05-23T07:13:23.761Z,13956.00
2019-05-23T07:14:23.998Z,13916.00
2019-05-23T07:15:24.216Z,14080.00
2019-05-23T07:16:24.445Z,14244.00
2019-05-23T07:17:24.673Z,14232.00
2019-05-23T07:18:24.905Z,14124.00
2019-05-23T07:19:25.137Z,13924.00
2019-05-23T07:20:25.368Z,13916.00
2019-05-23T07:21:25.596Z,13836.00
2019-05-23T07:22:25.834Z,13832.00
2019-05-23T07:23:26.061Z,13744.00
2019-05-23T07:24:26.281Z,13708.00
2019-05-23T07:25:26.512Z,13780.00
2019-05-23T07:26:26.748Z,13856.00
2019-05-23T07:27:26.984Z,13920.00
2019-05-23T07:28:27.205Z,14088.00
2019-05-23T07:29:27.433Z,14252.00
2019-05-23T07:30:27.783Z,14348.00
2019-05-23T07:31:27.895Z,14304.00
2019-05-23T07:32:28.131Z,14332.00
2019-05-23T07:33:28.361Z,14288.00
2019-05-23T07:34:28.589Z,14320.00
2019-05-23T07:35:28.827Z,14340.00
2019-05-23T07:36:29.050Z,14340.00
2019-05-23T07:37:29.286Z,14408.00
2019-05-23T07:38:29.518Z,14508.00
2019-05-23T07:39:29.749Z,14448.00
2019-05-23T07:40:30.033Z,14288.00
2019-05-23T07:41:30.207Z,14100.00
2019-05-23T07:42:30.437Z,13876.00
2019-05-23T07:43:30.671Z,13692.00
2019-05-23T07:44:30.894Z,13708.00
2019-05-23T07:45:31.126Z,13752.00
2019-05-23T07:46:31.360Z,13616.00
2019-05-23T07:47:31.591Z,13792.00
2019-05-23T07:48:31.826Z,13844.00
2019-05-23T07:49:32.057Z,13940.00
2019-05-23T07:50:32.285Z,13924.00
2019-05-23T07:51:32.512Z,13844.00
2019-05-23T07:52:32.738Z,13884.00
2019-05-23T07:53:32.975Z,13736.00
2019-05-23T07:54:33.204Z,13728.00
2019-05-23T07:55:33.425Z,13804.00
2019-05-23T07:56:33.655Z,13844.00
2019-05-23T07:57:33.890Z,13776.00
2019-05-23T07:58:34.125Z,13680.00
2019-05-23T07:59:34.384Z,13700.00
2019-05-23T08:00:34.582Z,13716.00
2019-05-23T08:01:34.816Z,13800.00
2019-05-23T08:02:35.059Z,13800.00
2019-05-23T08:03:35.273Z,13776.00
2019-05-23T08:04:35.502Z,13840.00
2019-05-23T08:05:35.734Z,13848.00
2019-05-23T08:06:35.974Z,13888.00
2019-05-23T08:07:36.203Z,13872.00
2019-05-23T08:08:36.434Z,13912.00
2019-05-23T08:09:36.665Z,13872.00
2019-05-23T08:10:36.910Z,13992.00
2019-05-23T08:11:37.126Z,14136.00
2019-05-23T08:12:37.354Z,14080.00
2019-05-23T08:13:37.585Z,14044.00
2019-05-23T08:14:37.820Z,14024.00
2019-05-23T08:15:38.043Z,14032.00
2019-05-23T08:16:38.275Z,13976.00
2019-05-23T08:17:38.600Z,13864.00
2019-05-23T08:18:38.741Z,13836.00
2019-05-23T08:19:48.930Z,13768.00
2019-05-23T08:20:39.203Z,13732.00
2019-05-23T08:21:39.435Z,13824.00
2019-05-23T08:22:39.663Z,13748.00
2019-05-23T08:23:39.887Z,13608.00
2019-05-23T08:24:40.139Z,13500.00
2019-05-23T08:25:40.348Z,13348.00
2019-05-23T08:26:40.591Z,13236.00
2019-05-23T08:27:40.821Z,13056.00
2019-05-23T08:28:56.673Z,12868.00
2019-05-23T08:29:41.285Z,12760.00
2019-05-23T08:30:41.517Z,12644.00
2019-05-23T08:31:41.748Z,12656.00
2019-05-23T08:32:41.982Z,12564.00
2019-05-23T08:33:42.212Z,12640.00
2019-05-23T08:34:42.995Z,12784.00
2019-05-23T08:35:42.665Z,12828.00
2019-05-23T08:36:42.952Z,12932.00
2019-05-23T08:37:43.140Z,12972.00
2019-05-23T08:38:43.406Z,13016.00
2019-05-23T08:39:43.604Z,13060.00
2019-05-23T08:40:43.836Z,12972.00
2019-05-23T08:41:44.077Z,13036.00
2019-05-23T08:42:44.296Z,13128.00
2019-05-23T08:43:44.526Z,13148.00
2019-05-23T08:44:44.763Z,13228.00
2019-05-23T08:45:44.988Z,13192.00
2019-05-23T08:46:45.220Z,13136.00
2019-05-23T08:47:45.446Z,13040.00
2019-05-23T08:48:45.680Z,12840.00
2019-05-23T08:49:45.912Z,12724.00
2019-05-23T08:50:46.151Z,12500.00
2019-05-23T08:51:46.376Z,12408.00
2019-05-23T08:52:46.606Z,12140.00
2019-05-23T08:53:46.840Z,11932.00
2019-05-23T08:54:47.085Z,11804.00
2019-05-23T08:55:47.296Z,11668.00
2019-05-23T08:56:47.524Z,11568.00
2019-05-23T08:57:47.756Z,11576.00
2019-05-23T08:58:47.990Z,11432.00
2019-05-23T08:59:48.219Z,11368.00
2019-05-23T09:00:48.459Z,11220.00
2019-05-23T09:01:48.675Z,11128.00
2019-05-23T09:02:48.902Z,11136.00
2019-05-23T09:03:49.140Z,11208.00
2019-05-23T09:05:03.684Z,11320.00
2019-05-23T09:05:49.600Z,11288.00
2019-05-23T09:06:49.832Z,11140.00
2019-05-23T09:07:50.065Z,11084.00
2019-05-23T09:08:50.295Z,11160.00
2019-05-23T09:09:50.523Z,10976.00
2019-05-23T09:10:50.755Z,11116.00
2019-05-23T09:11:50.988Z,11344.00
2019-05-23T09:12:51.219Z,11252.00
2019-05-23T09:13:51.455Z,11112.00
2019-05-23T09:14:51.682Z,11352.00
2019-05-23T09:15:53.142Z,11472.00
2019-05-23T09:16:52.139Z,11408.00
2019-05-23T09:17:54.030Z,11348.00
2019-05-23T09:18:52.605Z,11228.00
2019-05-23T09:19:52.880Z,11264.00
2019-05-23T09:20:53.076Z,11232.00
2019-05-23T09:21:57.833Z,11084.00
2019-05-23T09:22:53.545Z,11016.00
2019-05-23T09:23:53.784Z,11000.00
2019-05-23T09:24:54.027Z,11172.00
2019-05-23T09:25:54.282Z,11252.00
2019-05-23T09:26:54.506Z,11328.00
2019-05-23T09:27:54.738Z,11416.00
2019-05-23T09:28:54.970Z,11356.00
2019-05-23T09:29:55.198Z,11344.00
2019-05-23T09:30:55.433Z,11368.00
2019-05-23T09:31:55.666Z,11484.00
2019-05-23T09:32:55.900Z,11540.00
2019-05-23T09:33:56.130Z,11616.00
2019-05-23T09:34:56.364Z,11604.00
2019-05-23T09:35:56.601Z,11560.00
2019-05-23T09:37:00.150Z,11504.00
2019-05-23T09:37:57.062Z,11512.00
2019-05-23T09:38:57.385Z,11516.00
2019-05-23T09:39:57.539Z,11544.00
2019-05-23T09:40:57.774Z,11508.00
2019-05-23T09:41:58.013Z,11612.00
2019-05-23T09:42:58.242Z,11736.00
2019-05-23T09:43:58.467Z,11836.00
2019-05-23T09:44:58.698Z,11816.00
2019-05-23T09:45:58.923Z,11696.00
2019-05-23T09:46:59.265Z,11756.00
2019-05-23T09:47:59.397Z,11880.00
2019-05-23T09:48:59.628Z,12160.00
2019-05-23T09:49:59.860Z,12304.00
2019-05-23T09:51:00.094Z,12400.00
2019-05-23T09:52:01.364Z,12532.00
2019-05-23T09:53:00.558Z,12448.00
2019-05-23T09:54:00.790Z,12416.00
2019-05-23T09:55:01.025Z,12544.00
2019-05-23T09:56:01.255Z,12564.00
2019-05-23T09:57:01.488Z,11476.00
2019-05-23T09:58:01.722Z,12120.00
2019-05-23T09:59:01.953Z,10532.00
2019-05-23T10:00:02.328Z,10616.00
2019-05-23T10:01:02.417Z,10968.00
2019-05-23T10:02:02.661Z,12428.00
2019-05-23T10:03:02.888Z,10584.00
2019-05-23T10:04:03.180Z,10416.00
2019-05-23T10:05:03.358Z,10392.00
2019-05-23T10:06:03.589Z,10516.00
2019-05-23T10:07:03.826Z,10512.00
2019-05-23T10:08:04.064Z,10324.00
2019-05-23T10:09:04.291Z,10052.00
2019-05-23T10:10:04.524Z,9952.00
2019-05-23T10:11:04.759Z,9936.00
2019-05-23T10:12:04.991Z,9876.00
2019-05-23T10:13:05.228Z,9792.00
2019-05-23T10:14:05.503Z,9692.00
2019-05-23T10:15:05.783Z,9736.00
2019-05-23T10:16:05.933Z,9284.00
2019-05-23T10:17:06.161Z,9224.00
2019-05-23T10:18:06.393Z,9236.00
2019-05-23T10:19:06.628Z,9244.00
2019-05-23T10:20:06.858Z,9292.00
2019-05-23T10:21:07.090Z,9300.00
2019-05-23T10:22:07.324Z,9388.00
2019-05-23T10:23:07.553Z,9556.00
2019-05-23T10:24:07.819Z,9980.00
2019-05-23T10:25:08.022Z,11132.00
2019-05-23T10:26:08.250Z,10940.00
2019-05-23T10:27:08.483Z,10964.00
2019-05-23T10:28:08.716Z,11140.00
2019-05-23T10:29:08.950Z,10364.00
2019-05-23T10:30:09.192Z,9372.00
2019-05-23T10:31:09.414Z,9788.00
2019-05-23T10:32:09.648Z,10396.00
2019-05-23T10:33:12.736Z,9644.00
2019-05-23T10:34:10.108Z,9416.00
2019-05-23T10:35:10.347Z,10836.00
2019-05-23T10:36:10.568Z,11304.00
2019-05-23T10:37:10.799Z,11848.00
2019-05-23T10:38:11.037Z,11720.00
2019-05-23T10:39:11.261Z,11408.00
2019-05-23T10:40:11.490Z,11312.00
2019-05-23T10:41:11.729Z,11956.00
2019-05-23T10:42:11.956Z,12084.00
2019-05-23T10:43:12.189Z,12056.00
2019-05-23T10:44:12.452Z,12060.00
2019-05-23T10:45:12.654Z,12120.00
2019-05-23T10:46:12.887Z,12356.00
2019-05-23T10:47:13.145Z,12644.00
2019-05-23T10:48:13.373Z,13068.00
2019-05-23T10:49:13.600Z,13196.00
2019-05-23T10:50:13.851Z,13272.00
2019-05-23T10:51:14.066Z,13444.00
2019-05-23T10:52:14.307Z,13572.00
2019-05-23T10:53:14.540Z,13700.00
2019-05-23T10:54:14.776Z,13672.00
2019-05-23T10:55:14.973Z,11532.00
2019-05-23T10:56:20.076Z,11200.00
2019-05-23T10:57:15.424Z,11036.00
2019-05-23T10:58:15.660Z,10920.00
2019-05-23T10:59:15.894Z,10824.00
2019-05-23T11:00:16.129Z,10804.00
2019-05-23T11:01:16.359Z,11148.00
2019-05-23T11:02:16.594Z,10784.00
2019-05-23T11:03:17.146Z,12212.00
2019-05-23T11:04:17.056Z,12840.00
2019-05-23T11:05:17.291Z,13168.00
2019-05-23T11:06:17.524Z,13108.00
2019-05-23T11:07:17.754Z,13168.00
2019-05-23T11:08:17.996Z,13264.00
2019-05-23T11:09:18.226Z,13464.00
2019-05-23T11:10:18.458Z,13708.00
2019-05-23T11:11:18.744Z,13732.00
2019-05-23T11:12:18.948Z,13576.00
2019-05-23T11:13:19.177Z,13332.00
2019-05-23T11:14:19.430Z,13716.00
2019-05-23T11:15:19.650Z,13928.00
2019-05-23T11:16:19.905Z,14156.00
2019-05-23T11:17:20.146Z,14432.00
2019-05-23T11:18:20.371Z,14336.00
2019-05-23T11:19:20.612Z,14008.00
2019-05-23T11:20:20.837Z,13760.00
2019-05-23T11:21:21.095Z,13524.00
2019-05-23T11:22:21.313Z,13296.00
2019-05-23T11:23:21.554Z,13136.00
2019-05-23T11:24:21.788Z,13028.00
2019-05-23T11:25:22.014Z,13120.00
2019-05-23T11:26:22.245Z,13148.00
2019-05-23T11:27:22.480Z,12956.00
2019-05-23T11:28:22.738Z,12844.00
2019-05-23T11:29:22.947Z,12872.00
2019-05-23T11:30:23.183Z,12828.00
2019-05-23T11:31:23.418Z,12964.00
2019-05-23T11:32:23.649Z,13016.00
2019-05-23T11:33:23.884Z,13204.00
2019-05-23T11:34:24.119Z,13208.00
2019-05-23T11:35:24.356Z,13252.00
2019-05-23T11:36:35.440Z,13336.00
2019-05-23T11:37:24.842Z,13492.00
2019-05-23T11:38:25.064Z,13364.00
2019-05-23T11:39:25.529Z,13368.00
2019-05-23T11:40:25.542Z,13312.00
2019-05-23T11:41:25.776Z,13344.00
2019-05-23T11:42:26.007Z,13200.00
2019-05-23T11:43:26.240Z,12984.00
2019-05-23T11:44:26.550Z,13048.00
2019-05-23T11:45:26.711Z,13068.00
2019-05-23T11:46:26.949Z,13120.00
2019-05-23T11:47:31.037Z,13296.00
2019-05-23T11:48:27.417Z,13440.00
2019-05-23T11:49:27.653Z,13528.00
2019-05-23T11:50:27.886Z,13572.00
2019-05-23T11:51:28.282Z,13392.00
2019-05-23T11:52:28.366Z,13424.00
2019-05-23T11:53:28.590Z,13356.00
2019-05-23T11:54:28.842Z,11168.00
2019-05-23T11:55:29.057Z,11312.00
2019-05-23T11:56:29.297Z,13128.00
2019-05-23T11:57:29.526Z,13688.00
2019-05-23T11:58:32.559Z,13668.00
2019-05-23T11:59:29.993Z,13268.00
2019-05-23T12:00:30.238Z,11752.00
2019-05-23T12:01:30.465Z,12480.00
2019-05-23T12:02:30.705Z,12840.00
2019-05-23T12:03:30.942Z,12740.00
2019-05-23T12:04:31.187Z,12772.00
2019-05-23T12:05:31.437Z,13128.00
2019-05-23T12:06:31.639Z,13136.00
2019-05-23T12:07:31.876Z,13144.00
2019-05-23T12:08:32.111Z,13116.00
2019-05-23T12:09:32.346Z,13100.00
2019-05-23T12:10:32.581Z,13104.00
2019-05-23T12:11:36.629Z,13236.00
2019-05-23T12:12:33.062Z,13432.00
2019-05-23T12:13:33.302Z,13492.00
2019-05-23T12:14:33.545Z,13488.00
2019-05-23T12:15:33.770Z,13528.00
2019-05-23T12:16:34.009Z,13400.00